createdAt,value
2023-05-05T00:01:28.026Z,97.80
2023-05-05T00:03:54.659Z,98.00
2023-05-05T00:06:21.281Z,98.70
2023-05-05T00:08:47.866Z,97.50
2023-05-05T00:11:14.472Z,98.60
2023-05-05T00:13:41.113Z,98.40
2023-05-05T00:16:07.902Z,98.00
2023-05-05T00:18:34.546Z,98.80
2023-05-05T00:21:01.529Z,98.40
2023-05-05T00:23:28.164Z,97.30
2023-05-05T00:25:54.755Z,98.30
2023-05-05T00:28:21.854Z,98.40
2023-05-05T00:30:48.533Z,99.10
2023-05-05T00:33:15.220Z,99.50
2023-05-05T00:35:42.098Z,99.10
2023-05-05T00:38:09.298Z,98.70
2023-05-05T00:40:37.052Z,98.90
2023-05-05T00:43:03.693Z,99.00
2023-05-05T00:45:30.737Z,99.00
2023-05-05T00:47:59.533Z,98.90
2023-05-05T00:50:30.987Z,99.20
2023-05-05T00:53:03.376Z,98.30
2023-05-05T00:55:30.760Z,98.50
2023-05-05T00:57:58.765Z,99.20
2023-05-05T01:00:26.306Z,99.00
2023-05-05T01:02:53.181Z,98.30
2023-05-05T01:05:21.559Z,98.80
2023-05-05T01:08:12.902Z,99.50
2023-05-05T01:11:19.670Z,98.70
2023-05-05T01:14:27.378Z,98.90
2023-05-05T01:17:05.856Z,99.80
2023-05-05T01:19:51.182Z,99.00
2023-05-05T01:22:22.835Z,99.10
2023-05-05T01:25:12.759Z,99.40
2023-05-05T01:27:55.571Z,99.30
2023-05-05T01:30:59.771Z,99.80
2023-05-05T01:33:32.188Z,99.90
2023-05-05T01:36:05.402Z,99.90
2023-05-05T01:38:43.856Z,99.80
2023-05-05T01:41:18.212Z,99.60
2023-05-05T01:43:47.356Z,99.10
2023-05-05T01:46:15.835Z,98.90
2023-05-05T01:48:44.057Z,99.10
2023-05-05T01:51:12.356Z,99.50
2023-05-05T01:53:40.282Z,99.70
2023-05-05T01:56:08.269Z,99.90
2023-05-05T01:58:35.873Z,99.90
2023-05-05T02:01:03.885Z,99.90
2023-05-05T02:03:32.098Z,99.90
2023-05-05T02:06:01.110Z,99.90
2023-05-05T02:08:29.396Z,99.90
2023-05-05T02:10:56.527Z,99.90
2023-05-05T02:13:25.984Z,99.90
2023-05-05T02:15:54.701Z,99.90
2023-05-05T02:18:23.004Z,99.90
2023-05-05T02:20:49.622Z,99.90
2023-05-05T02:23:16.329Z,99.90
2023-05-05T02:25:51.164Z,99.90
2023-05-05T02:28:23.061Z,99.90
2023-05-05T02:30:57.520Z,99.90
2023-05-05T02:33:26.772Z,99.90
2023-05-05T02:35:56.465Z,99.90
2023-05-05T02:38:27.802Z,99.90
2023-05-05T02:40:56.451Z,99.90
2023-05-05T02:43:25.624Z,99.90
2023-05-05T02:45:52.250Z,99.90
2023-05-05T02:48:18.851Z,99.90
2023-05-05T02:50:45.480Z,99.90
2023-05-05T02:53:12.420Z,99.90
2023-05-05T02:56:07.972Z,99.90
2023-05-05T02:58:51.629Z,99.90
2023-05-05T03:01:29.008Z,99.90
2023-05-05T03:04:13.195Z,99.90
2023-05-05T03:06:43.065Z,99.90
2023-05-05T03:09:13.083Z,99.90
2023-05-05T03:12:08.338Z,99.10
2023-05-05T03:14:41.543Z,99.40
2023-05-05T03:17:11.120Z,99.50
2023-05-05T03:19:41.261Z,99.50
2023-05-05T03:22:08.430Z,99.40
2023-05-05T03:24:35.179Z,99.30
2023-05-05T03:27:02.670Z,99.50
2023-05-05T03:29:32.157Z,99.40
2023-05-05T03:32:00.796Z,99.90
2023-05-05T03:34:27.405Z,99.90
2023-05-05T03:36:53.937Z,99.90
2023-05-05T03:39:20.527Z,99.90
2023-05-05T03:41:47.137Z,99.90
2023-05-05T03:44:13.747Z,99.90
2023-05-05T03:46:40.350Z,99.90
2023-05-05T03:49:07.098Z,99.90
2023-05-05T03:51:36.356Z,99.90
2023-05-05T03:54:03.287Z,99.90
2023-05-05T03:56:29.834Z,99.90
2023-05-05T03:58:56.397Z,99.90
2023-05-05T04:01:25.703Z,99.90
2023-05-05T04:03:52.444Z,99.90
2023-05-05T04:06:19.121Z,99.90
2023-05-05T04:08:46.230Z,99.90
2023-05-05T04:11:12.965Z,99.90
2023-05-05T04:13:39.544Z,99.90
2023-05-05T04:16:06.376Z,99.90
2023-05-05T04:18:33.001Z,99.90
2023-05-05T04:20:59.601Z,99.90
2023-05-05T04:23:26.189Z,99.90
2023-05-05T04:25:52.862Z,99.90
2023-05-05T04:28:21.797Z,99.90
2023-05-05T04:30:48.759Z,99.90
2023-05-05T04:33:15.334Z,99.90
2023-05-05T04:35:41.891Z,99.90
2023-05-05T04:38:08.495Z,99.90
2023-05-05T04:40:39.286Z,99.90
2023-05-05T04:43:06.926Z,99.90
2023-05-05T04:45:33.697Z,99.90
2023-05-05T04:48:00.378Z,99.90
2023-05-05T04:50:27.007Z,99.90
2023-05-05T04:52:53.692Z,99.90
2023-05-05T04:55:20.400Z,99.90
2023-05-05T04:57:46.978Z,99.90
2023-05-05T05:00:13.934Z,99.90
2023-05-05T05:02:41.464Z,99.90
2023-05-05T05:05:09.405Z,99.90
2023-05-05T05:07:35.934Z,99.90
2023-05-05T05:10:02.548Z,99.90
2023-05-05T05:12:29.148Z,99.90
2023-05-05T05:14:55.816Z,99.90
2023-05-05T05:17:23.750Z,99.90
2023-05-05T05:19:50.313Z,99.90
2023-05-05T05:22:16.869Z,99.90
2023-05-05T05:24:46.223Z,99.90
2023-05-05T05:27:12.753Z,99.90
2023-05-05T05:29:39.329Z,99.90
2023-05-05T05:32:06.076Z,99.90
2023-05-05T05:34:32.712Z,99.90
2023-05-05T05:36:59.282Z,99.90
2023-05-05T05:39:25.834Z,99.90
2023-05-05T05:41:52.536Z,99.90
2023-05-05T05:44:19.080Z,99.90
2023-05-05T05:46:45.641Z,99.90
2023-05-05T05:49:12.278Z,99.90
2023-05-05T05:51:38.887Z,99.90
2023-05-05T05:54:05.585Z,99.90
2023-05-05T05:56:32.121Z,99.90
2023-05-05T05:58:58.733Z,99.90
2023-05-05T06:01:25.462Z,99.90
2023-05-05T06:03:52.573Z,99.90
2023-05-05T06:06:19.342Z,99.90
2023-05-05T06:08:46.313Z,99.90
2023-05-05T06:11:12.928Z,99.90
2023-05-05T06:13:39.469Z,99.90
2023-05-05T06:16:06.405Z,99.90
2023-05-05T06:18:32.995Z,99.90
2023-05-05T06:21:00.150Z,99.90
2023-05-05T06:23:27.323Z,99.80
2023-05-05T06:25:55.526Z,99.90
2023-05-05T06:28:22.092Z,99.90
2023-05-05T06:30:48.653Z,99.90
2023-05-05T06:33:15.199Z,99.60
2023-05-05T06:35:41.764Z,98.90
2023-05-05T06:38:09.593Z,99.10
2023-05-05T06:40:36.262Z,98.70
2023-05-05T06:43:02.828Z,98.00
2023-05-05T06:45:31.030Z,98.10
2023-05-05T06:47:57.757Z,97.80
2023-05-05T06:50:24.350Z,97.80
2023-05-05T06:52:52.362Z,97.80
2023-05-05T06:55:19.022Z,97.50
2023-05-05T06:57:45.583Z,96.90
2023-05-05T07:00:13.845Z,96.80
2023-05-05T07:02:41.133Z,96.40
2023-05-05T07:05:07.840Z,97.20
2023-05-05T07:07:34.442Z,95.90
2023-05-05T07:10:01.271Z,96.10
2023-05-05T07:12:31.216Z,95.70
2023-05-05T07:14:57.869Z,95.70
2023-05-05T07:17:24.554Z,95.00
2023-05-05T07:19:51.627Z,95.10
2023-05-05T07:22:18.193Z,94.50
2023-05-05T07:24:44.834Z,95.30
2023-05-05T07:27:11.526Z,94.80
2023-05-05T07:29:38.078Z,94.40
2023-05-05T07:32:05.284Z,93.20
2023-05-05T07:34:34.187Z,93.30
2023-05-05T07:37:00.896Z,93.40
2023-05-05T07:39:27.632Z,93.20
2023-05-05T07:41:54.239Z,93.40
2023-05-05T07:44:20.833Z,92.90
2023-05-05T07:46:47.513Z,93.30
2023-05-05T07:49:14.132Z,92.90
2023-05-05T07:51:40.766Z,91.50
2023-05-05T07:54:07.372Z,90.90
2023-05-05T07:56:34.124Z,90.70
2023-05-05T07:59:00.908Z,87.10
2023-05-05T08:01:27.509Z,83.90
2023-05-05T08:03:54.153Z,84.30
2023-05-05T08:06:22.069Z,83.00
2023-05-05T08:08:49.058Z,83.60
2023-05-05T08:11:16.045Z,82.80
2023-05-05T08:13:43.097Z,81.40
2023-05-05T08:16:09.953Z,80.00
2023-05-05T08:18:38.265Z,80.00
2023-05-05T08:21:06.191Z,76.20
2023-05-05T08:23:36.870Z,72.90
2023-05-05T08:26:06.179Z,71.30
2023-05-05T08:28:34.491Z,70.20
2023-05-05T08:31:01.239Z,64.60
2023-05-05T08:33:27.778Z,64.20
2023-05-05T08:35:54.342Z,65.10
2023-05-05T08:38:20.886Z,62.10
2023-05-05T08:40:47.621Z,62.30
2023-05-05T08:43:14.335Z,60.50
2023-05-05T08:45:42.122Z,60.50
2023-05-05T08:48:09.485Z,60.30
2023-05-05T08:50:39.114Z,58.60
2023-05-05T08:53:16.900Z,55.50
2023-05-05T08:55:51.596Z,53.20
2023-05-05T08:58:19.375Z,50.80
2023-05-05T09:00:46.661Z,51.20
2023-05-05T09:03:13.567Z,50.30
2023-05-05T09:05:42.719Z,50.80
2023-05-05T09:08:11.321Z,49.50
2023-05-05T09:10:41.472Z,47.60
2023-05-05T09:13:08.382Z,46.30
2023-05-05T09:15:35.364Z,45.50
2023-05-05T09:18:02.388Z,45.20
2023-05-05T09:20:36.931Z,44.10
2023-05-05T09:23:11.446Z,43.20
2023-05-05T09:25:38.937Z,41.70
2023-05-05T09:28:17.747Z,42.00
2023-05-05T09:30:46.092Z,42.30
2023-05-05T09:33:13.553Z,43.00
2023-05-05T09:35:49.403Z,42.50
2023-05-05T09:38:16.300Z,42.30
2023-05-05T09:40:47.974Z,46.20
2023-05-05T09:43:18.578Z,47.90
2023-05-05T09:45:45.294Z,47.00
2023-05-05T09:48:31.462Z,45.40
2023-05-05T09:50:59.297Z,44.00
2023-05-05T09:53:26.735Z,41.40
2023-05-05T09:55:57.642Z,39.90
2023-05-05T09:58:26.019Z,38.00
2023-05-05T10:00:53.392Z,39.50
2023-05-05T10:03:20.751Z,42.20
2023-05-05T10:05:51.981Z,42.40
2023-05-05T10:08:27.145Z,43.20
2023-05-05T10:11:00.360Z,45.60
2023-05-05T10:13:27.790Z,42.50
2023-05-05T10:15:56.863Z,43.00
2023-05-05T10:18:27.717Z,41.60
2023-05-05T10:20:59.864Z,43.50
2023-05-05T10:23:45.636Z,45.60
2023-05-05T10:26:14.331Z,46.70
2023-05-05T10:28:51.773Z,46.40
2023-05-05T10:31:26.499Z,47.80
2023-05-05T10:34:00.286Z,50.60
2023-05-05T10:36:28.261Z,44.80
2023-05-05T10:38:59.126Z,45.60
2023-05-05T10:41:26.856Z,48.00
2023-05-05T10:43:56.551Z,47.90
2023-05-05T10:46:24.492Z,45.30
2023-05-05T10:49:25.628Z,41.20
2023-05-05T10:52:00.631Z,40.50
2023-05-05T10:54:45.529Z,41.70
2023-05-05T10:57:14.526Z,40.30
2023-05-05T10:59:42.168Z,39.10
2023-05-05T11:02:28.608Z,38.20
2023-05-05T11:05:16.941Z,36.80
2023-05-05T11:07:49.792Z,41.70
2023-05-05T11:10:20.361Z,41.10
2023-05-05T11:12:57.739Z,41.80
2023-05-05T11:15:27.184Z,44.50
2023-05-05T11:17:55.191Z,43.10
2023-05-05T11:20:48.138Z,41.20
2023-05-05T11:23:21.920Z,43.10
2023-05-05T11:25:48.569Z,44.60
2023-05-05T11:28:21.175Z,46.10
2023-05-05T11:30:58.083Z,47.50
2023-05-05T11:33:45.681Z,46.30
2023-05-05T11:36:12.290Z,45.80
2023-05-05T11:39:12.964Z,46.50
2023-05-05T11:41:52.973Z,47.50
2023-05-05T11:44:29.560Z,46.20
2023-05-05T11:47:02.937Z,48.60
2023-05-05T11:49:34.345Z,49.40
2023-05-05T11:52:03.932Z,49.20
2023-05-05T11:54:31.505Z,48.30
2023-05-05T11:57:07.647Z,48.80
2023-05-05T11:59:38.602Z,50.30
2023-05-05T12:02:05.375Z,50.50
2023-05-05T12:04:32.162Z,49.70
2023-05-05T12:06:59.689Z,50.50
2023-05-05T12:09:27.340Z,51.70
2023-05-05T12:11:55.819Z,53.50
2023-05-05T12:14:23.805Z,55.60
2023-05-05T12:17:05.678Z,55.80
2023-05-05T12:19:35.546Z,55.40
2023-05-05T12:22:03.989Z,55.20
2023-05-05T12:24:31.132Z,56.90
2023-05-05T12:27:11.315Z,57.10
2023-05-05T12:29:38.105Z,58.50
2023-05-05T12:32:05.043Z,61.90
2023-05-05T12:34:32.047Z,65.20
2023-05-05T12:36:58.830Z,70.90
2023-05-05T12:39:36.253Z,76.40
2023-05-05T12:42:04.124Z,88.80
2023-05-05T12:44:37.604Z,94.70
2023-05-05T12:47:04.724Z,96.40
2023-05-05T12:49:34.281Z,98.80
2023-05-05T12:52:00.940Z,98.90
2023-05-05T12:54:30.683Z,98.70
2023-05-05T12:56:58.466Z,99.40
2023-05-05T12:59:24.963Z,98.80
2023-05-05T13:01:53.357Z,98.70
2023-05-05T13:04:22.904Z,98.60
2023-05-05T13:07:07.408Z,98.30
2023-05-05T13:09:34.588Z,98.80
2023-05-05T13:12:04.482Z,98.40
2023-05-05T13:14:35.042Z,99.60
2023-05-05T13:17:01.718Z,99.30
2023-05-05T13:19:30.571Z,98.70
2023-05-05T13:21:58.344Z,99.90
2023-05-05T13:24:38.095Z,99.90
2023-05-05T13:27:09.522Z,99.90
2023-05-05T13:29:36.226Z,99.90
2023-05-05T13:32:03.137Z,99.90
2023-05-05T13:34:29.913Z,99.90
2023-05-05T13:36:56.524Z,99.90
2023-05-05T13:39:23.109Z,99.60
2023-05-05T13:41:49.719Z,99.40
2023-05-05T13:44:16.298Z,98.90
2023-05-05T13:46:43.052Z,98.80
2023-05-05T13:49:11.978Z,99.90
2023-05-05T13:51:39.062Z,99.90
2023-05-05T13:54:06.826Z,99.20
2023-05-05T13:56:34.710Z,98.30
2023-05-05T13:59:02.298Z,97.90
2023-05-05T14:01:29.745Z,99.00
2023-05-05T14:03:57.598Z,98.00
2023-05-05T14:06:27.785Z,98.40
2023-05-05T14:08:54.412Z,98.60
2023-05-05T14:11:21.262Z,99.40
2023-05-05T14:13:48.026Z,99.90
2023-05-05T14:16:14.872Z,99.90
2023-05-05T14:18:41.834Z,99.90
2023-05-05T14:21:08.510Z,99.90
2023-05-05T14:23:35.253Z,99.90
2023-05-05T14:26:01.885Z,99.90
2023-05-05T14:28:28.605Z,99.90
2023-05-05T14:30:55.285Z,99.90
2023-05-05T14:33:22.161Z,99.90
2023-05-05T14:35:48.950Z,99.90
2023-05-05T14:38:15.698Z,99.90
2023-05-05T14:40:42.452Z,99.90
2023-05-05T14:43:09.050Z,99.90
2023-05-05T14:45:38.833Z,99.90
2023-05-05T14:48:05.736Z,99.90
2023-05-05T14:50:32.363Z,99.90
2023-05-05T14:52:58.941Z,99.90
2023-05-05T14:55:26.037Z,99.90
2023-05-05T14:57:52.660Z,99.90
2023-05-05T15:00:19.473Z,99.90
2023-05-05T15:02:48.010Z,99.90
2023-05-05T15:05:14.957Z,99.90
2023-05-05T15:07:41.583Z,99.90
2023-05-05T15:10:08.450Z,99.90
2023-05-05T15:12:35.084Z,99.90
2023-05-05T15:15:01.764Z,99.90
2023-05-05T15:17:28.650Z,99.90
2023-05-05T15:19:55.426Z,99.90
2023-05-05T15:22:22.115Z,99.90
2023-05-05T15:24:48.814Z,99.90
2023-05-05T15:27:15.457Z,99.90
2023-05-05T15:29:42.075Z,99.90
2023-05-05T15:32:08.674Z,99.90
2023-05-05T15:34:37.130Z,99.90
2023-05-05T15:37:03.779Z,99.90
2023-05-05T15:39:30.461Z,99.90
2023-05-05T15:41:57.056Z,99.90
2023-05-05T15:44:23.656Z,99.90
2023-05-05T15:46:50.678Z,99.90
2023-05-05T15:49:17.402Z,99.90
2023-05-05T15:51:44.052Z,99.90
2023-05-05T15:54:10.627Z,99.90
2023-05-05T15:56:37.384Z,99.90
2023-05-05T15:59:04.007Z,99.90
2023-05-05T16:01:31.243Z,99.90
2023-05-05T16:03:59.796Z,99.90
2023-05-05T16:06:27.200Z,99.90
2023-05-05T16:08:53.885Z,99.90
2023-05-05T16:11:22.410Z,99.90
2023-05-05T16:13:49.319Z,99.90
2023-05-05T16:16:15.921Z,99.90
2023-05-05T16:18:42.703Z,99.90
2023-05-05T16:21:09.284Z,99.90
2023-05-05T16:23:35.871Z,99.90
2023-05-05T16:26:03.959Z,99.90
2023-05-05T16:28:33.974Z,99.90
2023-05-05T16:31:01.726Z,99.90
2023-05-05T16:33:28.482Z,99.90
2023-05-05T16:35:55.179Z,99.90
2023-05-05T16:38:21.768Z,99.90
2023-05-05T16:40:48.386Z,99.90
2023-05-05T16:43:14.930Z,99.90
2023-05-05T16:45:41.492Z,99.90
2023-05-05T16:48:09.241Z,99.90
2023-05-05T16:50:36.227Z,99.90
2023-05-05T16:53:02.793Z,99.90
2023-05-05T16:55:29.614Z,99.90
2023-05-05T16:57:56.197Z,99.90
2023-05-05T17:00:22.811Z,99.90
2023-05-05T17:02:49.988Z,99.90
2023-05-05T17:05:17.520Z,99.90
2023-05-05T17:07:44.485Z,99.90
2023-05-05T17:10:11.071Z,99.90
2023-05-05T17:12:37.807Z,99.90
2023-05-05T17:15:04.881Z,99.90
2023-05-05T17:17:31.534Z,99.90
2023-05-05T17:19:58.263Z,99.90
2023-05-05T17:22:24.881Z,99.90
2023-05-05T17:24:51.823Z,99.90
2023-05-05T17:27:18.400Z,99.90
2023-05-05T17:29:45.000Z,99.90
2023-05-05T17:32:11.780Z,99.90
2023-05-05T17:34:38.476Z,99.90
2023-05-05T17:37:05.185Z,99.90
2023-05-05T17:39:32.450Z,99.90
2023-05-05T17:41:59.018Z,99.90
2023-05-05T17:44:25.630Z,99.90
2023-05-05T17:46:52.211Z,99.90
2023-05-05T17:49:18.770Z,99.90
2023-05-05T17:51:45.481Z,99.90
2023-05-05T17:54:12.068Z,99.90
2023-05-05T17:56:38.638Z,99.90
2023-05-05T17:59:05.195Z,99.90
2023-05-05T18:01:31.948Z,99.90
2023-05-05T18:03:58.611Z,99.90
2023-05-05T18:06:25.658Z,99.90
2023-05-05T18:08:52.401Z,99.90
2023-05-05T18:11:21.087Z,99.90
2023-05-05T18:13:47.634Z,99.90
2023-05-05T18:16:14.315Z,99.90
2023-05-05T18:18:41.567Z,99.90
2023-05-05T18:21:11.835Z,99.90
2023-05-05T18:23:39.326Z,99.90
2023-05-05T18:26:06.613Z,99.90
2023-05-05T18:28:33.240Z,99.90
2023-05-05T18:30:59.902Z,99.90
2023-05-05T18:33:26.458Z,99.90
2023-05-05T18:35:53.062Z,99.90
2023-05-05T18:38:19.697Z,99.90
2023-05-05T18:40:46.312Z,99.90
2023-05-05T18:43:13.023Z,99.90
2023-05-05T18:45:39.638Z,99.90
2023-05-05T18:48:06.793Z,99.90
2023-05-05T18:50:33.417Z,99.90
2023-05-05T18:52:59.980Z,99.90
2023-05-05T18:55:26.600Z,99.90
2023-05-05T18:57:53.277Z,99.90
2023-05-05T19:00:20.637Z,99.90
2023-05-05T19:02:47.294Z,99.90
2023-05-05T19:05:13.886Z,99.90
2023-05-05T19:07:40.764Z,99.90
2023-05-05T19:10:08.253Z,99.90
2023-05-05T19:12:35.030Z,99.90
2023-05-05T19:15:01.733Z,99.90
2023-05-05T19:17:28.300Z,99.90
2023-05-05T19:19:54.935Z,99.90
2023-05-05T19:22:23.410Z,99.90
2023-05-05T19:24:49.972Z,99.90
2023-05-05T19:27:17.228Z,99.90
2023-05-05T19:29:44.189Z,99.90
2023-05-05T19:32:10.936Z,99.90
2023-05-05T19:34:37.723Z,99.90
2023-05-05T19:37:04.429Z,99.90
2023-05-05T19:39:31.179Z,99.90
2023-05-05T19:41:57.736Z,99.90
2023-05-05T19:44:24.417Z,99.90
2023-05-05T19:46:52.599Z,99.90
2023-05-05T19:49:19.334Z,99.90
2023-05-05T19:51:47.550Z,99.90
2023-05-05T19:54:14.165Z,99.90
2023-05-05T19:56:40.749Z,99.90
2023-05-05T19:59:07.472Z,99.90
2023-05-05T20:01:35.140Z,99.90
2023-05-05T20:04:03.450Z,99.90
2023-05-05T20:06:30.191Z,99.90
2023-05-05T20:08:56.724Z,99.90
2023-05-05T20:11:24.801Z,99.90
2023-05-05T20:13:51.696Z,99.90
2023-05-05T20:16:18.875Z,99.90
2023-05-05T20:18:45.497Z,99.90
2023-05-05T20:21:12.387Z,99.90
2023-05-05T20:23:39.065Z,99.90
2023-05-05T20:26:06.247Z,99.90
2023-05-05T20:28:33.169Z,99.90
2023-05-05T20:31:00.716Z,99.90
2023-05-05T20:33:28.809Z,99.90
2023-05-05T20:35:55.744Z,99.90
2023-05-05T20:38:22.424Z,99.90
2023-05-05T20:40:49.858Z,99.90
2023-05-05T20:43:16.730Z,99.90
2023-05-05T20:45:43.346Z,99.90
2023-05-05T20:48:11.164Z,99.90
2023-05-05T20:50:38.944Z,99.90
2023-05-05T20:53:07.776Z,99.90
2023-05-05T20:55:34.400Z,99.90
2023-05-05T20:58:01.092Z,99.90
2023-05-05T21:00:27.689Z,99.90
2023-05-05T21:02:54.279Z,99.90
2023-05-05T21:05:21.218Z,99.90
2023-05-05T21:07:47.746Z,99.90
2023-05-05T21:10:14.390Z,99.90
2023-05-05T21:12:41.572Z,99.90
2023-05-05T21:15:09.097Z,99.90
2023-05-05T21:17:36.260Z,99.90
2023-05-05T21:20:03.010Z,99.90
2023-05-05T21:22:29.647Z,99.90
2023-05-05T21:25:12.637Z,99.90
2023-05-05T21:27:39.325Z,99.90
2023-05-05T21:30:08.624Z,99.90
2023-05-05T21:32:38.086Z,99.90
2023-05-05T21:35:06.129Z,99.90
2023-05-05T21:37:33.188Z,99.90
2023-05-05T21:39:59.814Z,99.90
2023-05-05T21:42:28.733Z,99.90
2023-05-05T21:44:55.336Z,99.90
2023-05-05T21:47:22.115Z,99.90
2023-05-05T21:49:48.862Z,99.90
2023-05-05T21:52:15.460Z,99.90
2023-05-05T21:54:42.025Z,99.90
2023-05-05T21:57:08.593Z,99.90
2023-05-05T21:59:35.174Z,99.90
2023-05-05T22:02:02.043Z,99.90
2023-05-05T22:04:28.673Z,99.90
2023-05-05T22:06:55.254Z,99.90
2023-05-05T22:09:21.787Z,99.90
2023-05-05T22:11:48.439Z,99.90
2023-05-05T22:14:15.843Z,99.90
2023-05-05T22:16:42.735Z,99.90
2023-05-05T22:19:09.443Z,99.90
2023-05-05T22:21:36.050Z,99.90
2023-05-05T22:24:02.674Z,99.90
2023-05-05T22:26:29.235Z,99.90
2023-05-05T22:28:56.141Z,99.90
2023-05-05T22:31:22.754Z,99.90
2023-05-05T22:33:49.313Z,99.90
2023-05-05T22:36:16.041Z,99.90
2023-05-05T22:38:42.606Z,99.90
2023-05-05T22:41:09.477Z,99.90
2023-05-05T22:43:36.728Z,99.90
2023-05-05T22:46:03.319Z,99.90
2023-05-05T22:48:29.921Z,99.90
2023-05-05T22:50:57.050Z,99.90
2023-05-05T22:53:23.691Z,99.90
2023-05-05T22:55:51.559Z,99.90
2023-05-05T22:58:18.373Z,99.90
2023-05-05T23:00:45.035Z,99.90
2023-05-05T23:03:12.097Z,99.90
2023-05-05T23:05:38.685Z,99.90
2023-05-05T23:08:05.509Z,99.90
2023-05-05T23:10:32.077Z,99.90
2023-05-05T23:13:01.426Z,99.90
2023-05-05T23:15:28.637Z,99.90
2023-05-05T23:17:55.354Z,99.90
2023-05-05T23:20:22.137Z,99.90
2023-05-05T23:22:48.698Z,99.90
2023-05-05T23:25:15.296Z,99.90
2023-05-05T23:27:42.002Z,99.90
2023-05-05T23:30:09.175Z,99.90
2023-05-05T23:32:35.812Z,99.90
2023-05-05T23:35:02.376Z,99.90
2023-05-05T23:37:28.987Z,99.90
2023-05-05T23:39:56.553Z,99.90
2023-05-05T23:42:23.632Z,99.90
2023-05-05T23:44:50.225Z,99.90
2023-05-05T23:47:16.850Z,99.90
2023-05-05T23:49:43.406Z,99.90
2023-05-05T23:52:11.168Z,99.90
2023-05-05T23:54:37.717Z,99.90
2023-05-05T23:57:04.348Z,99.90
2023-05-05T23:59:30.965Z,99.90
